createdAt,value
2022-11-16T00:00:41.150Z,80.73
2022-11-16T00:02:48.415Z,80.55
2022-11-16T00:04:56.809Z,80.12
2022-11-16T00:07:03.526Z,79.73
2022-11-16T00:09:27.321Z,79.39
2022-11-16T00:11:33.145Z,78.15
2022-11-16T00:13:41.540Z,77.58
2022-11-16T00:15:58.676Z,77.62
2022-11-16T00:20:24.076Z,77.24
2022-11-16T00:22:30.779Z,77.00
2022-11-16T00:24:37.305Z,77.09
2022-11-16T00:26:43.388Z,76.82
2022-11-16T00:28:50.967Z,76.95
2022-11-16T00:31:02.675Z,77.66
2022-11-16T00:33:10.924Z,78.47
2022-11-16T00:35:17.608Z,79.10
2022-11-16T00:37:26.024Z,79.50
2022-11-16T00:39:31.895Z,80.17
2022-11-16T00:41:38.438Z,80.67
2022-11-16T00:43:44.342Z,80.98
2022-11-16T00:45:50.495Z,81.14
2022-11-16T00:48:00.467Z,80.97
2022-11-16T00:50:08.806Z,81.43
2022-11-16T00:52:14.514Z,81.24
2022-11-16T00:54:23.636Z,81.35
2022-11-16T00:56:29.578Z,80.91
2022-11-16T00:58:35.724Z,80.46
2022-11-16T01:00:47.487Z,79.57
2022-11-16T01:02:54.753Z,79.13
2022-11-16T01:05:00.812Z,78.77
2022-11-16T01:07:09.268Z,78.60
2022-11-16T01:09:15.054Z,79.76
2022-11-16T01:11:36.052Z,80.46
2022-11-16T01:13:42.635Z,81.35
2022-11-16T01:15:51.626Z,81.30
2022-11-16T01:18:00.084Z,81.56
2022-11-16T01:20:11.286Z,81.45
2022-11-16T01:22:17.033Z,81.49
2022-11-16T01:24:22.983Z,82.01
2022-11-16T01:26:32.490Z,82.43
2022-11-16T01:28:38.509Z,82.67
2022-11-16T01:30:51.510Z,82.33
2022-11-16T01:32:58.128Z,82.31
2022-11-16T01:35:07.173Z,82.56
2022-11-16T01:37:13.872Z,82.68
2022-11-16T01:39:22.307Z,82.53
2022-11-16T01:41:35.451Z,82.54
2022-11-16T01:44:01.902Z,82.01
2022-11-16T01:46:14.558Z,81.47
2022-11-16T01:48:29.028Z,81.07
2022-11-16T01:50:35.471Z,80.79
2022-11-16T01:52:50.636Z,80.46
2022-11-16T01:54:56.154Z,80.37
2022-11-16T01:57:14.604Z,79.61
2022-11-16T01:59:29.647Z,79.24
2022-11-16T02:01:36.492Z,79.02
2022-11-16T02:03:44.463Z,78.75
2022-11-16T02:06:17.939Z,78.27
2022-11-16T02:09:04.862Z,77.49
2022-11-16T02:11:48.262Z,77.51
2022-11-16T02:14:13.908Z,77.06
2022-11-16T02:16:38.814Z,76.59
2022-11-16T02:19:02.895Z,76.52
2022-11-16T02:21:32.902Z,75.80
2022-11-16T02:24:22.838Z,75.39
2022-11-16T02:27:14.408Z,75.03
2022-11-16T02:29:35.646Z,75.24
2022-11-16T02:31:52.568Z,75.24
2022-11-16T02:34:03.704Z,74.84
2022-11-16T02:36:18.627Z,74.76
2022-11-16T02:38:32.828Z,75.24
2022-11-16T02:40:47.963Z,74.88
2022-11-16T02:43:10.281Z,74.62
2022-11-16T02:45:27.416Z,74.73
2022-11-16T02:47:40.025Z,74.84
2022-11-16T02:49:58.611Z,75.29
2022-11-16T02:52:07.231Z,75.04
2022-11-16T02:54:19.641Z,74.85
2022-11-16T02:56:31.521Z,74.50
2022-11-16T02:58:37.300Z,74.97
2022-11-16T03:00:59.228Z,74.86
2022-11-16T03:03:28.700Z,75.02
2022-11-16T03:05:43.546Z,75.19
2022-11-16T03:08:12.048Z,74.82
2022-11-16T03:10:35.489Z,74.45
2022-11-16T03:12:46.200Z,73.80
2022-11-16T03:14:59.745Z,73.95
2022-11-16T03:17:20.817Z,73.80
